sensor_id;sensor_type;location;lat;lon;timestamp;P1;durP1;ratioP1;P2;durP2;ratioP2
20844;SDS011;10583;49.084;8.646;2022-08-19T00:02:22;15.88;;;15.77;;
20844;SDS011;10583;49.084;8.646;2022-08-19T00:04:50;16.50;;;16.40;;
20844;SDS011;10583;49.084;8.646;2022-08-19T00:07:18;16.17;;;16.10;;
20844;SDS011;10583;49.084;8.646;2022-08-19T00:09:45;16.58;;;16.48;;
20844;SDS011;10583;49.084;8.646;2022-08-19T00:12:12;16.23;;;16.13;;
20844;SDS011;10583;49.084;8.646;2022-08-19T00:14:40;17.02;;;16.92;;
20844;SDS011;10583;49.084;8.646;2022-08-19T00:17:07;16.33;;;16.25;;
20844;SDS011;10583;49.084;8.646;2022-08-19T00:19:37;18.08;;;17.98;;
20844;SDS011;10583;49.084;8.646;2022-08-19T00:22:08;17.52;;;17.42;;
20844;SDS011;10583;49.084;8.646;2022-08-19T00:24:34;17.85;;;17.75;;
20844;SDS011;10583;49.084;8.646;2022-08-19T00:27:03;17.35;;;17.25;;
20844;SDS011;10583;49.084;8.646;2022-08-19T00:29:30;17.25;;;17.15;;
20844;SDS011;10583;49.084;8.646;2022-08-19T00:31:57;20.17;;;20.08;;
20844;SDS011;10583;49.084;8.646;2022-08-19T00:34:25;18.33;;;18.23;;
20844;SDS011;10583;49.084;8.646;2022-08-19T00:36:53;17.73;;;17.63;;
20844;SDS011;10583;49.084;8.646;2022-08-19T00:39:21;18.90;;;18.80;;
20844;SDS011;10583;49.084;8.646;2022-08-19T00:41:48;16.90;;;16.80;;
20844;SDS011;10583;49.084;8.646;2022-08-19T00:44:17;18.35;;;18.25;;
20844;SDS011;10583;49.084;8.646;2022-08-19T00:46:46;17.58;;;17.48;;
20844;SDS011;10583;49.084;8.646;2022-08-19T00:49:15;17.02;;;17.00;;
20844;SDS011;10583;49.084;8.646;2022-08-19T00:51:45;18.00;;;17.90;;
20844;SDS011;10583;49.084;8.646;2022-08-19T00:54:14;17.73;;;17.63;;
20844;SDS011;10583;49.084;8.646;2022-08-19T00:56:43;17.58;;;17.48;;
20844;SDS011;10583;49.084;8.646;2022-08-19T00:59:11;18.30;;;18.20;;
20844;SDS011;10583;49.084;8.646;2022-08-19T01:01:39;16.80;;;16.70;;
20844;SDS011;10583;49.084;8.646;2022-08-19T01:04:07;17.15;;;17.05;;
20844;SDS011;10583;49.084;8.646;2022-08-19T01:06:34;18.55;;;18.45;;
20844;SDS011;10583;49.084;8.646;2022-08-19T01:09:03;17.30;;;17.20;;
20844;SDS011;10583;49.084;8.646;2022-08-19T01:11:30;18.27;;;18.17;;
20844;SDS011;10583;49.084;8.646;2022-08-19T01:14:01;18.27;;;18.17;;
20844;SDS011;10583;49.084;8.646;2022-08-19T01:16:29;18.52;;;18.42;;
20844;SDS011;10583;49.084;8.646;2022-08-19T01:18:58;18.40;;;18.30;;
20844;SDS011;10583;49.084;8.646;2022-08-19T01:21:26;18.10;;;18.00;;
20844;SDS011;10583;49.084;8.646;2022-08-19T01:23:58;18.58;;;18.48;;
20844;SDS011;10583;49.084;8.646;2022-08-19T01:26:26;17.38;;;17.27;;
20844;SDS011;10583;49.084;8.646;2022-08-19T01:28:54;18.10;;;18.00;;
20844;SDS011;10583;49.084;8.646;2022-08-19T01:31:23;17.30;;;17.27;;
20844;SDS011;10583;49.084;8.646;2022-08-19T01:33:52;17.60;;;17.50;;
20844;SDS011;10583;49.084;8.646;2022-08-19T01:36:22;17.55;;;17.45;;
20844;SDS011;10583;49.084;8.646;2022-08-19T01:38:51;17.63;;;17.52;;
20844;SDS011;10583;49.084;8.646;2022-08-19T01:41:20;17.10;;;17.00;;
20844;SDS011;10583;49.084;8.646;2022-08-19T01:43:48;17.00;;;16.90;;
20844;SDS011;10583;49.084;8.646;2022-08-19T01:46:15;17.38;;;17.30;;
20844;SDS011;10583;49.084;8.646;2022-08-19T01:48:43;16.83;;;16.73;;
20844;SDS011;10583;49.084;8.646;2022-08-19T01:51:10;18.23;;;18.13;;
20844;SDS011;10583;49.084;8.646;2022-08-19T01:53:37;17.40;;;17.30;;
20844;SDS011;10583;49.084;8.646;2022-08-19T01:56:05;17.77;;;17.67;;
20844;SDS011;10583;49.084;8.646;2022-08-19T01:58:35;18.70;;;18.60;;
20844;SDS011;10583;49.084;8.646;2022-08-19T02:01:07;18.80;;;18.70;;
20844;SDS011;10583;49.084;8.646;2022-08-19T02:03:34;20.73;;;20.63;;
20844;SDS011;10583;49.084;8.646;2022-08-19T02:06:01;19.30;;;19.20;;
20844;SDS011;10583;49.084;8.646;2022-08-19T02:08:30;20.60;;;20.50;;
20844;SDS011;10583;49.084;8.646;2022-08-19T02:10:58;19.23;;;19.13;;
20844;SDS011;10583;49.084;8.646;2022-08-19T02:13:25;20.40;;;20.30;;
20844;SDS011;10583;49.084;8.646;2022-08-19T02:15:53;20.50;;;20.40;;
20844;SDS011;10583;49.084;8.646;2022-08-19T02:18:20;21.03;;;20.93;;
20844;SDS011;10583;49.084;8.646;2022-08-19T02:20:47;20.37;;;20.27;;
20844;SDS011;10583;49.084;8.646;2022-08-19T02:23:14;20.70;;;20.60;;
20844;SDS011;10583;49.084;8.646;2022-08-19T02:25:42;20.77;;;20.67;;
20844;SDS011;10583;49.084;8.646;2022-08-19T02:28:10;20.27;;;20.17;;
20844;SDS011;10583;49.084;8.646;2022-08-19T02:30:38;20.20;;;20.10;;
20844;SDS011;10583;49.084;8.646;2022-08-19T02:33:07;19.10;;;19.00;;
20844;SDS011;10583;49.084;8.646;2022-08-19T02:35:34;19.83;;;19.73;;
20844;SDS011;10583;49.084;8.646;2022-08-19T02:38:01;21.53;;;21.43;;
20844;SDS011;10583;49.084;8.646;2022-08-19T02:40:48;20.03;;;19.93;;
20844;SDS011;10583;49.084;8.646;2022-08-19T02:43:16;20.57;;;20.47;;
20844;SDS011;10583;49.084;8.646;2022-08-19T02:45:45;20.23;;;20.13;;
20844;SDS011;10583;49.084;8.646;2022-08-19T02:48:13;20.20;;;20.10;;
20844;SDS011;10583;49.084;8.646;2022-08-19T02:50:41;19.17;;;19.07;;
20844;SDS011;10583;49.084;8.646;2022-08-19T02:53:08;19.10;;;19.00;;
20844;SDS011;10583;49.084;8.646;2022-08-19T02:55:35;18.60;;;18.50;;
20844;SDS011;10583;49.084;8.646;2022-08-19T02:58:02;19.53;;;19.43;;
20844;SDS011;10583;49.084;8.646;2022-08-19T03:00:28;19.60;;;19.50;;
20844;SDS011;10583;49.084;8.646;2022-08-19T03:02:55;21.13;;;21.03;;
20844;SDS011;10583;49.084;8.646;2022-08-19T03:05:23;19.93;;;19.83;;
20844;SDS011;10583;49.084;8.646;2022-08-19T03:07:50;21.17;;;21.07;;
20844;SDS011;10583;49.084;8.646;2022-08-19T03:10:16;20.90;;;20.80;;
20844;SDS011;10583;49.084;8.646;2022-08-19T03:12:43;21.23;;;21.13;;
20844;SDS011;10583;49.084;8.646;2022-08-19T03:15:11;21.37;;;21.27;;
20844;SDS011;10583;49.084;8.646;2022-08-19T03:17:38;20.03;;;19.93;;
20844;SDS011;10583;49.084;8.646;2022-08-19T03:20:04;21.07;;;20.97;;
20844;SDS011;10583;49.084;8.646;2022-08-19T03:22:33;20.07;;;19.97;;
20844;SDS011;10583;49.084;8.646;2022-08-19T03:25:00;22.20;;;22.10;;
20844;SDS011;10583;49.084;8.646;2022-08-19T03:27:26;21.27;;;21.17;;
20844;SDS011;10583;49.084;8.646;2022-08-19T03:29:54;21.97;;;21.87;;
20844;SDS011;10583;49.084;8.646;2022-08-19T03:32:21;21.40;;;21.30;;
20844;SDS011;10583;49.084;8.646;2022-08-19T03:34:48;22.30;;;22.20;;
20844;SDS011;10583;49.084;8.646;2022-08-19T03:37:16;23.00;;;22.90;;
20844;SDS011;10583;49.084;8.646;2022-08-19T03:39:44;23.67;;;23.57;;
20844;SDS011;10583;49.084;8.646;2022-08-19T03:42:11;22.63;;;22.53;;
20844;SDS011;10583;49.084;8.646;2022-08-19T03:44:38;22.17;;;22.07;;
20844;SDS011;10583;49.084;8.646;2022-08-19T03:47:04;24.30;;;24.20;;
20844;SDS011;10583;49.084;8.646;2022-08-19T03:49:32;23.57;;;23.47;;
20844;SDS011;10583;49.084;8.646;2022-08-19T03:52:00;24.17;;;24.07;;
20844;SDS011;10583;49.084;8.646;2022-08-19T03:54:27;22.40;;;22.30;;
20844;SDS011;10583;49.084;8.646;2022-08-19T03:56:56;22.67;;;22.57;;
20844;SDS011;10583;49.084;8.646;2022-08-19T03:59:23;22.67;;;22.57;;
20844;SDS011;10583;49.084;8.646;2022-08-19T04:01:52;23.67;;;23.53;;
20844;SDS011;10583;49.084;8.646;2022-08-19T04:04:19;22.93;;;22.83;;
20844;SDS011;10583;49.084;8.646;2022-08-19T04:06:46;23.27;;;23.17;;
20844;SDS011;10583;49.084;8.646;2022-08-19T04:09:14;24.20;;;24.10;;
20844;SDS011;10583;49.084;8.646;2022-08-19T04:11:42;23.00;;;22.90;;
20844;SDS011;10583;49.084;8.646;2022-08-19T04:14:13;22.33;;;22.23;;
20844;SDS011;10583;49.084;8.646;2022-08-19T04:16:41;20.93;;;20.83;;
20844;SDS011;10583;49.084;8.646;2022-08-19T04:19:09;20.57;;;20.47;;
20844;SDS011;10583;49.084;8.646;2022-08-19T04:21:37;21.30;;;21.20;;
20844;SDS011;10583;49.084;8.646;2022-08-19T04:24:04;21.13;;;21.03;;
20844;SDS011;10583;49.084;8.646;2022-08-19T04:26:32;21.73;;;21.63;;
20844;SDS011;10583;49.084;8.646;2022-08-19T04:29:00;23.90;;;23.80;;
20844;SDS011;10583;49.084;8.646;2022-08-19T04:31:32;23.33;;;23.23;;
20844;SDS011;10583;49.084;8.646;2022-08-19T04:34:01;24.37;;;24.27;;
20844;SDS011;10583;49.084;8.646;2022-08-19T04:36:30;23.97;;;23.87;;
20844;SDS011;10583;49.084;8.646;2022-08-19T04:38:59;23.23;;;23.13;;
20844;SDS011;10583;49.084;8.646;2022-08-19T04:41:30;21.20;;;21.10;;
20844;SDS011;10583;49.084;8.646;2022-08-19T04:44:14;23.27;;;23.17;;
20844;SDS011;10583;49.084;8.646;2022-08-19T04:46:44;22.27;;;22.17;;
20844;SDS011;10583;49.084;8.646;2022-08-19T04:49:12;22.13;;;22.03;;
20844;SDS011;10583;49.084;8.646;2022-08-19T04:51:39;22.70;;;22.60;;
20844;SDS011;10583;49.084;8.646;2022-08-19T04:54:08;21.80;;;21.70;;
20844;SDS011;10583;49.084;8.646;2022-08-19T04:56:34;20.63;;;20.53;;
20844;SDS011;10583;49.084;8.646;2022-08-19T04:59:01;19.80;;;19.70;;
20844;SDS011;10583;49.084;8.646;2022-08-19T05:01:29;21.13;;;21.03;;
20844;SDS011;10583;49.084;8.646;2022-08-19T05:03:59;21.83;;;21.73;;
20844;SDS011;10583;49.084;8.646;2022-08-19T05:06:28;22.83;;;22.73;;
20844;SDS011;10583;49.084;8.646;2022-08-19T05:08:57;22.47;;;22.37;;
20844;SDS011;10583;49.084;8.646;2022-08-19T05:11:25;20.87;;;20.77;;
20844;SDS011;10583;49.084;8.646;2022-08-19T05:13:53;22.23;;;22.13;;
20844;SDS011;10583;49.084;8.646;2022-08-19T05:16:22;21.77;;;21.67;;
20844;SDS011;10583;49.084;8.646;2022-08-19T05:18:50;19.50;;;19.40;;
20844;SDS011;10583;49.084;8.646;2022-08-19T05:21:38;19.83;;;19.73;;
20844;SDS011;10583;49.084;8.646;2022-08-19T05:24:24;21.27;;;21.17;;
20844;SDS011;10583;49.084;8.646;2022-08-19T05:26:52;20.17;;;20.07;;
20844;SDS011;10583;49.084;8.646;2022-08-19T05:29:22;20.00;;;19.90;;
20844;SDS011;10583;49.084;8.646;2022-08-19T05:31:50;20.57;;;20.47;;
20844;SDS011;10583;49.084;8.646;2022-08-19T05:34:17;20.87;;;20.77;;
20844;SDS011;10583;49.084;8.646;2022-08-19T05:36:48;18.53;;;18.43;;
20844;SDS011;10583;49.084;8.646;2022-08-19T05:39:17;21.67;;;21.57;;
20844;SDS011;10583;49.084;8.646;2022-08-19T05:41:46;21.43;;;21.33;;
20844;SDS011;10583;49.084;8.646;2022-08-19T05:44:14;20.90;;;20.80;;
20844;SDS011;10583;49.084;8.646;2022-08-19T05:46:43;19.53;;;19.43;;
20844;SDS011;10583;49.084;8.646;2022-08-19T05:49:12;18.87;;;18.77;;
20844;SDS011;10583;49.084;8.646;2022-08-19T05:51:40;18.83;;;18.73;;
20844;SDS011;10583;49.084;8.646;2022-08-19T05:54:09;19.00;;;18.90;;
20844;SDS011;10583;49.084;8.646;2022-08-19T05:56:38;18.70;;;18.60;;
20844;SDS011;10583;49.084;8.646;2022-08-19T05:59:05;17.80;;;17.70;;
20844;SDS011;10583;49.084;8.646;2022-08-19T06:01:35;18.65;;;18.55;;
20844;SDS011;10583;49.084;8.646;2022-08-19T06:04:03;16.97;;;16.87;;
20844;SDS011;10583;49.084;8.646;2022-08-19T06:06:31;18.33;;;18.23;;
20844;SDS011;10583;49.084;8.646;2022-08-19T06:08:59;20.30;;;20.20;;
20844;SDS011;10583;49.084;8.646;2022-08-19T06:11:33;18.83;;;18.73;;
20844;SDS011;10583;49.084;8.646;2022-08-19T06:14:02;18.53;;;18.43;;
20844;SDS011;10583;49.084;8.646;2022-08-19T06:16:33;18.53;;;18.43;;
20844;SDS011;10583;49.084;8.646;2022-08-19T06:19:00;19.67;;;19.57;;
20844;SDS011;10583;49.084;8.646;2022-08-19T06:21:29;18.97;;;18.87;;
20844;SDS011;10583;49.084;8.646;2022-08-19T06:23:57;18.77;;;18.67;;
20844;SDS011;10583;49.084;8.646;2022-08-19T06:26:24;18.37;;;18.27;;
20844;SDS011;10583;49.084;8.646;2022-08-19T06:28:52;18.17;;;18.07;;
20844;SDS011;10583;49.084;8.646;2022-08-19T06:31:21;18.20;;;18.10;;
20844;SDS011;10583;49.084;8.646;2022-08-19T06:33:49;17.93;;;17.83;;
20844;SDS011;10583;49.084;8.646;2022-08-19T06:36:18;17.87;;;17.77;;
20844;SDS011;10583;49.084;8.646;2022-08-19T06:38:46;17.77;;;17.67;;
20844;SDS011;10583;49.084;8.646;2022-08-19T06:41:13;18.50;;;18.40;;
20844;SDS011;10583;49.084;8.646;2022-08-19T06:43:40;18.67;;;18.57;;
20844;SDS011;10583;49.084;8.646;2022-08-19T06:46:13;16.90;;;16.80;;
20844;SDS011;10583;49.084;8.646;2022-08-19T06:48:41;17.52;;;17.42;;
20844;SDS011;10583;49.084;8.646;2022-08-19T06:51:08;17.45;;;17.35;;
20844;SDS011;10583;49.084;8.646;2022-08-19T06:53:34;16.42;;;16.33;;
20844;SDS011;10583;49.084;8.646;2022-08-19T06:56:01;16.70;;;16.60;;
20844;SDS011;10583;49.084;8.646;2022-08-19T06:58:28;16.85;;;16.75;;
20844;SDS011;10583;49.084;8.646;2022-08-19T07:00:57;17.17;;;17.08;;
20844;SDS011;10583;49.084;8.646;2022-08-19T07:03:27;16.08;;;16.08;;
20844;SDS011;10583;49.084;8.646;2022-08-19T07:05:55;17.27;;;17.27;;
20844;SDS011;10583;49.084;8.646;2022-08-19T07:08:22;16.98;;;16.88;;
20844;SDS011;10583;49.084;8.646;2022-08-19T07:10:52;17.63;;;17.52;;
20844;SDS011;10583;49.084;8.646;2022-08-19T07:13:19;16.23;;;16.13;;
20844;SDS011;10583;49.084;8.646;2022-08-19T07:15:47;16.88;;;16.77;;
20844;SDS011;10583;49.084;8.646;2022-08-19T07:18:15;16.35;;;16.25;;
20844;SDS011;10583;49.084;8.646;2022-08-19T07:20:43;16.33;;;16.23;;
20844;SDS011;10583;49.084;8.646;2022-08-19T07:23:10;15.63;;;15.57;;
20844;SDS011;10583;49.084;8.646;2022-08-19T07:25:37;15.02;;;15.02;;
20844;SDS011;10583;49.084;8.646;2022-08-19T07:28:05;14.85;;;14.80;;
20844;SDS011;10583;49.084;8.646;2022-08-19T07:30:32;15.43;;;15.32;;
20844;SDS011;10583;49.084;8.646;2022-08-19T07:33:01;15.23;;;15.23;;
20844;SDS011;10583;49.084;8.646;2022-08-19T07:35:28;14.85;;;14.77;;
20844;SDS011;10583;49.084;8.646;2022-08-19T07:37:58;14.43;;;14.43;;
20844;SDS011;10583;49.084;8.646;2022-08-19T07:40:28;15.40;;;15.40;;
20844;SDS011;10583;49.084;8.646;2022-08-19T07:42:55;14.15;;;14.05;;
20844;SDS011;10583;49.084;8.646;2022-08-19T07:45:21;16.10;;;16.00;;
20844;SDS011;10583;49.084;8.646;2022-08-19T07:47:48;14.25;;;14.25;;
20844;SDS011;10583;49.084;8.646;2022-08-19T07:50:16;13.55;;;13.50;;
20844;SDS011;10583;49.084;8.646;2022-08-19T07:52:44;14.13;;;14.07;;
20844;SDS011;10583;49.084;8.646;2022-08-19T07:55:12;13.82;;;13.82;;
20844;SDS011;10583;49.084;8.646;2022-08-19T07:57:40;12.68;;;12.68;;
20844;SDS011;10583;49.084;8.646;2022-08-19T08:00:07;12.13;;;12.13;;
20844;SDS011;10583;49.084;8.646;2022-08-19T08:02:34;12.55;;;12.55;;
20844;SDS011;10583;49.084;8.646;2022-08-19T08:05:02;13.00;;;12.90;;
20844;SDS011;10583;49.084;8.646;2022-08-19T08:07:46;11.52;;;11.52;;
20844;SDS011;10583;49.084;8.646;2022-08-19T08:10:32;10.77;;;10.77;;
20844;SDS011;10583;49.084;8.646;2022-08-19T08:12:58;10.80;;;10.80;;
20844;SDS011;10583;49.084;8.646;2022-08-19T08:15:25;11.50;;;11.50;;
20844;SDS011;10583;49.084;8.646;2022-08-19T08:17:52;11.73;;;11.73;;
20844;SDS011;10583;49.084;8.646;2022-08-19T08:20:19;10.73;;;10.73;;
20844;SDS011;10583;49.084;8.646;2022-08-19T08:22:46;12.27;;;12.27;;
20844;SDS011;10583;49.084;8.646;2022-08-19T08:25:33;10.68;;;10.68;;
20844;SDS011;10583;49.084;8.646;2022-08-19T08:28:01;10.48;;;10.48;;
20844;SDS011;10583;49.084;8.646;2022-08-19T08:30:29;9.48;;;9.48;;
20844;SDS011;10583;49.084;8.646;2022-08-19T08:32:57;11.10;;;11.10;;
20844;SDS011;10583;49.084;8.646;2022-08-19T08:35:24;10.50;;;10.50;;
20844;SDS011;10583;49.084;8.646;2022-08-19T08:37:52;11.10;;;11.10;;
20844;SDS011;10583;49.084;8.646;2022-08-19T08:40:21;10.32;;;10.32;;
20844;SDS011;10583;49.084;8.646;2022-08-19T08:42:54;11.70;;;11.70;;
20844;SDS011;10583;49.084;8.646;2022-08-19T08:45:26;9.80;;;9.80;;
20844;SDS011;10583;49.084;8.646;2022-08-19T08:47:55;10.35;;;10.35;;
20844;SDS011;10583;49.084;8.646;2022-08-19T08:50:28;9.07;;;9.07;;
20844;SDS011;10583;49.084;8.646;2022-08-19T08:53:01;10.00;;;10.00;;
20844;SDS011;10583;49.084;8.646;2022-08-19T08:55:29;8.73;;;8.73;;
20844;SDS011;10583;49.084;8.646;2022-08-19T08:57:59;8.93;;;8.93;;
20844;SDS011;10583;49.084;8.646;2022-08-19T09:00:29;8.27;;;8.27;;
20844;SDS011;10583;49.084;8.646;2022-08-19T09:02:58;7.38;;;7.38;;
20844;SDS011;10583;49.084;8.646;2022-08-19T09:05:29;7.72;;;7.72;;
20844;SDS011;10583;49.084;8.646;2022-08-19T09:08:02;7.22;;;7.22;;
20844;SDS011;10583;49.084;8.646;2022-08-19T09:10:36;7.35;;;7.35;;
20844;SDS011;10583;49.084;8.646;2022-08-19T09:13:08;6.65;;;6.65;;
20844;SDS011;10583;49.084;8.646;2022-08-19T09:15:52;7.15;;;7.15;;
20844;SDS011;10583;49.084;8.646;2022-08-19T09:18:23;7.68;;;7.68;;
20844;SDS011;10583;49.084;8.646;2022-08-19T09:20:50;6.68;;;6.68;;
20844;SDS011;10583;49.084;8.646;2022-08-19T09:23:17;6.50;;;6.50;;
20844;SDS011;10583;49.084;8.646;2022-08-19T09:25:44;6.22;;;6.22;;
20844;SDS011;10583;49.084;8.646;2022-08-19T09:28:12;6.32;;;6.32;;
20844;SDS011;10583;49.084;8.646;2022-08-19T09:30:40;5.90;;;5.90;;
20844;SDS011;10583;49.084;8.646;2022-08-19T09:33:07;5.93;;;5.93;;
20844;SDS011;10583;49.084;8.646;2022-08-19T09:35:34;6.22;;;6.22;;
20844;SDS011;10583;49.084;8.646;2022-08-19T09:38:01;6.47;;;6.47;;
20844;SDS011;10583;49.084;8.646;2022-08-19T09:40:28;5.80;;;5.80;;
20844;SDS011;10583;49.084;8.646;2022-08-19T09:42:56;6.50;;;6.50;;
20844;SDS011;10583;49.084;8.646;2022-08-19T09:45:28;6.35;;;6.35;;
20844;SDS011;10583;49.084;8.646;2022-08-19T09:47:56;5.40;;;5.40;;
20844;SDS011;10583;49.084;8.646;2022-08-19T09:50:22;5.38;;;5.38;;
20844;SDS011;10583;49.084;8.646;2022-08-19T09:52:49;6.63;;;6.63;;
20844;SDS011;10583;49.084;8.646;2022-08-19T09:55:18;5.85;;;5.85;;
20844;SDS011;10583;49.084;8.646;2022-08-19T09:57:45;4.60;;;4.60;;
20844;SDS011;10583;49.084;8.646;2022-08-19T10:00:11;4.50;;;4.50;;
20844;SDS011;10583;49.084;8.646;2022-08-19T10:02:40;4.50;;;4.50;;
20844;SDS011;10583;49.084;8.646;2022-08-19T10:05:07;4.00;;;4.00;;
20844;SDS011;10583;49.084;8.646;2022-08-19T10:07:51;4.93;;;4.93;;
20844;SDS011;10583;49.084;8.646;2022-08-19T10:10:19;4.15;;;4.15;;
20844;SDS011;10583;49.084;8.646;2022-08-19T10:12:46;4.38;;;4.38;;
20844;SDS011;10583;49.084;8.646;2022-08-19T10:15:13;4.20;;;4.20;;
20844;SDS011;10583;49.084;8.646;2022-08-19T10:17:41;4.22;;;4.22;;
20844;SDS011;10583;49.084;8.646;2022-08-19T10:20:08;4.20;;;4.20;;
20844;SDS011;10583;49.084;8.646;2022-08-19T10:22:36;4.70;;;4.70;;
20844;SDS011;10583;49.084;8.646;2022-08-19T10:25:04;4.60;;;4.60;;
20844;SDS011;10583;49.084;8.646;2022-08-19T10:27:32;4.40;;;4.40;;
20844;SDS011;10583;49.084;8.646;2022-08-19T10:29:58;4.47;;;4.47;;
20844;SDS011;10583;49.084;8.646;2022-08-19T10:32:26;4.20;;;4.20;;
20844;SDS011;10583;49.084;8.646;2022-08-19T10:34:55;4.13;;;4.13;;
20844;SDS011;10583;49.084;8.646;2022-08-19T10:37:22;4.57;;;4.57;;
20844;SDS011;10583;49.084;8.646;2022-08-19T10:39:49;4.85;;;4.85;;
20844;SDS011;10583;49.084;8.646;2022-08-19T10:42:16;4.90;;;4.90;;
20844;SDS011;10583;49.084;8.646;2022-08-19T10:44:43;4.72;;;4.72;;
20844;SDS011;10583;49.084;8.646;2022-08-19T10:47:11;4.60;;;4.60;;
20844;SDS011;10583;49.084;8.646;2022-08-19T10:49:38;5.07;;;5.07;;
20844;SDS011;10583;49.084;8.646;2022-08-19T10:52:26;5.10;;;5.10;;
20844;SDS011;10583;49.084;8.646;2022-08-19T10:55:02;4.90;;;4.90;;
20844;SDS011;10583;49.084;8.646;2022-08-19T10:57:47;4.68;;;4.68;;
20844;SDS011;10583;49.084;8.646;2022-08-19T11:00:15;5.13;;;5.13;;
20844;SDS011;10583;49.084;8.646;2022-08-19T11:02:42;4.45;;;4.45;;
20844;SDS011;10583;49.084;8.646;2022-08-19T11:05:09;4.60;;;4.60;;
20844;SDS011;10583;49.084;8.646;2022-08-19T11:07:38;4.43;;;4.43;;
20844;SDS011;10583;49.084;8.646;2022-08-19T11:10:05;5.00;;;5.00;;
20844;SDS011;10583;49.084;8.646;2022-08-19T11:12:35;4.78;;;4.78;;
20844;SDS011;10583;49.084;8.646;2022-08-19T11:15:04;4.43;;;4.43;;
20844;SDS011;10583;49.084;8.646;2022-08-19T11:17:32;5.38;;;5.38;;
20844;SDS011;10583;49.084;8.646;2022-08-19T11:19:59;4.93;;;4.93;;
20844;SDS011;10583;49.084;8.646;2022-08-19T11:22:29;5.20;;;5.20;;
20844;SDS011;10583;49.084;8.646;2022-08-19T11:24:57;4.97;;;4.97;;
20844;SDS011;10583;49.084;8.646;2022-08-19T11:27:23;5.22;;;5.22;;
20844;SDS011;10583;49.084;8.646;2022-08-19T11:29:50;4.55;;;4.55;;
20844;SDS011;10583;49.084;8.646;2022-08-19T11:32:17;5.47;;;5.47;;
20844;SDS011;10583;49.084;8.646;2022-08-19T11:34:44;5.10;;;5.10;;
20844;SDS011;10583;49.084;8.646;2022-08-19T11:37:11;4.68;;;4.68;;
20844;SDS011;10583;49.084;8.646;2022-08-19T11:39:38;4.60;;;4.60;;
20844;SDS011;10583;49.084;8.646;2022-08-19T11:42:06;5.22;;;5.22;;
20844;SDS011;10583;49.084;8.646;2022-08-19T11:44:47;4.82;;;4.82;;
20844;SDS011;10583;49.084;8.646;2022-08-19T11:47:14;4.63;;;4.63;;
20844;SDS011;10583;49.084;8.646;2022-08-19T11:49:40;4.05;;;4.05;;
20844;SDS011;10583;49.084;8.646;2022-08-19T11:52:07;4.50;;;4.50;;
20844;SDS011;10583;49.084;8.646;2022-08-19T11:54:35;4.35;;;4.35;;
20844;SDS011;10583;49.084;8.646;2022-08-19T11:57:02;5.10;;;5.10;;
20844;SDS011;10583;49.084;8.646;2022-08-19T11:59:31;4.30;;;4.30;;
20844;SDS011;10583;49.084;8.646;2022-08-19T12:01:57;4.05;;;4.05;;
20844;SDS011;10583;49.084;8.646;2022-08-19T12:04:24;4.30;;;4.30;;
20844;SDS011;10583;49.084;8.646;2022-08-19T12:06:51;5.05;;;5.05;;
20844;SDS011;10583;49.084;8.646;2022-08-19T12:09:18;5.10;;;5.10;;
20844;SDS011;10583;49.084;8.646;2022-08-19T12:11:44;3.97;;;3.97;;
20844;SDS011;10583;49.084;8.646;2022-08-19T12:14:12;3.97;;;3.97;;
20844;SDS011;10583;49.084;8.646;2022-08-19T12:16:40;4.15;;;4.15;;
20844;SDS011;10583;49.084;8.646;2022-08-19T12:19:10;4.60;;;4.60;;
20844;SDS011;10583;49.084;8.646;2022-08-19T12:21:37;4.68;;;4.68;;
20844;SDS011;10583;49.084;8.646;2022-08-19T12:24:04;5.03;;;5.03;;
20844;SDS011;10583;49.084;8.646;2022-08-19T12:26:32;4.03;;;4.03;;
20844;SDS011;10583;49.084;8.646;2022-08-19T12:28:59;3.97;;;3.97;;
20844;SDS011;10583;49.084;8.646;2022-08-19T12:31:26;4.30;;;4.30;;
20844;SDS011;10583;49.084;8.646;2022-08-19T12:33:54;4.97;;;4.97;;
20844;SDS011;10583;49.084;8.646;2022-08-19T12:36:21;5.03;;;5.03;;
20844;SDS011;10583;49.084;8.646;2022-08-19T12:38:49;4.93;;;4.93;;
20844;SDS011;10583;49.084;8.646;2022-08-19T12:41:17;4.63;;;4.63;;
20844;SDS011;10583;49.084;8.646;2022-08-19T12:43:47;3.70;;;3.70;;
20844;SDS011;10583;49.084;8.646;2022-08-19T12:46:14;4.25;;;4.25;;
20844;SDS011;10583;49.084;8.646;2022-08-19T12:48:41;4.25;;;4.25;;
20844;SDS011;10583;49.084;8.646;2022-08-19T12:51:12;4.65;;;4.65;;
20844;SDS011;10583;49.084;8.646;2022-08-19T12:53:41;4.20;;;4.20;;
20844;SDS011;10583;49.084;8.646;2022-08-19T12:56:09;3.60;;;3.60;;
20844;SDS011;10583;49.084;8.646;2022-08-19T12:58:37;3.80;;;3.80;;
20844;SDS011;10583;49.084;8.646;2022-08-19T13:01:07;3.78;;;3.78;;
20844;SDS011;10583;49.084;8.646;2022-08-19T13:03:35;4.05;;;4.05;;
20844;SDS011;10583;49.084;8.646;2022-08-19T13:06:02;4.20;;;4.20;;
20844;SDS011;10583;49.084;8.646;2022-08-19T13:08:30;4.40;;;4.40;;
20844;SDS011;10583;49.084;8.646;2022-08-19T13:10:57;4.15;;;4.15;;
20844;SDS011;10583;49.084;8.646;2022-08-19T13:13:24;4.07;;;4.07;;
20844;SDS011;10583;49.084;8.646;2022-08-19T13:15:51;3.95;;;3.95;;
20844;SDS011;10583;49.084;8.646;2022-08-19T13:18:18;4.30;;;4.30;;
20844;SDS011;10583;49.084;8.646;2022-08-19T13:20:45;4.38;;;4.38;;
20844;SDS011;10583;49.084;8.646;2022-08-19T13:23:11;4.60;;;4.60;;
20844;SDS011;10583;49.084;8.646;2022-08-19T13:25:39;4.65;;;4.65;;
20844;SDS011;10583;49.084;8.646;2022-08-19T13:28:06;5.20;;;5.20;;
20844;SDS011;10583;49.084;8.646;2022-08-19T13:30:33;4.88;;;4.88;;
20844;SDS011;10583;49.084;8.646;2022-08-19T13:33:17;4.82;;;4.82;;
20844;SDS011;10583;49.084;8.646;2022-08-19T13:35:45;5.35;;;5.35;;
20844;SDS011;10583;49.084;8.646;2022-08-19T13:38:14;5.30;;;5.30;;
20844;SDS011;10583;49.084;8.646;2022-08-19T13:40:44;5.53;;;5.53;;
20844;SDS011;10583;49.084;8.646;2022-08-19T13:43:11;5.22;;;5.22;;
20844;SDS011;10583;49.084;8.646;2022-08-19T13:45:38;6.15;;;6.15;;
20844;SDS011;10583;49.084;8.646;2022-08-19T13:48:06;5.50;;;5.50;;
20844;SDS011;10583;49.084;8.646;2022-08-19T13:50:35;6.13;;;6.13;;
20844;SDS011;10583;49.084;8.646;2022-08-19T13:53:05;5.00;;;5.00;;
20844;SDS011;10583;49.084;8.646;2022-08-19T13:55:32;5.30;;;5.30;;
20844;SDS011;10583;49.084;8.646;2022-08-19T13:58:01;4.55;;;4.55;;
20844;SDS011;10583;49.084;8.646;2022-08-19T14:00:29;4.40;;;4.40;;
20844;SDS011;10583;49.084;8.646;2022-08-19T14:03:00;4.38;;;4.38;;
20844;SDS011;10583;49.084;8.646;2022-08-19T14:05:27;4.35;;;4.35;;
20844;SDS011;10583;49.084;8.646;2022-08-19T14:07:55;4.80;;;4.80;;
20844;SDS011;10583;49.084;8.646;2022-08-19T14:10:22;3.83;;;3.83;;
20844;SDS011;10583;49.084;8.646;2022-08-19T14:12:51;3.90;;;3.90;;
20844;SDS011;10583;49.084;8.646;2022-08-19T14:15:21;4.30;;;4.30;;
20844;SDS011;10583;49.084;8.646;2022-08-19T14:17:49;4.40;;;4.40;;
20844;SDS011;10583;49.084;8.646;2022-08-19T14:20:16;4.45;;;4.45;;
20844;SDS011;10583;49.084;8.646;2022-08-19T14:22:43;4.05;;;4.05;;
20844;SDS011;10583;49.084;8.646;2022-08-19T14:25:12;3.90;;;3.90;;
20844;SDS011;10583;49.084;8.646;2022-08-19T14:27:40;3.97;;;3.97;;
20844;SDS011;10583;49.084;8.646;2022-08-19T14:30:08;3.75;;;3.75;;
20844;SDS011;10583;49.084;8.646;2022-08-19T14:32:38;3.80;;;3.80;;
20844;SDS011;10583;49.084;8.646;2022-08-19T14:35:05;3.45;;;3.45;;
20844;SDS011;10583;49.084;8.646;2022-08-19T14:37:33;3.40;;;3.40;;
20844;SDS011;10583;49.084;8.646;2022-08-19T14:40:00;3.67;;;3.67;;